NATURA VA

 METAR AND TAF INFORMATION
METAR FOR LESO
ADDS - METARS form results

(1605 UTC 26 March 2019)
Data provider http://aviationweather.gov/metar/data/
 
METAR text: LESO 261600Z 31006KT 270V010 CAVOK 13/05 Q1027
Conditions at: LESO (SAN SEBASTIAN/FU, ES) observed 1600 UTC 26 March 2019
Temperature: 13.0°C (55°F)
Dewpoint: 5.0°C (41°F) [RH = 58%]
Pressure (altimeter): 30.32 inches Hg (1027.0 mb)
Winds: from the NW (310 degrees) at 7 MPH (6 knots; 3.1 m/s)
Visibility: 6 or more miles (10+ km)
Ceiling: ceiling and visibility are OK
Clouds: unknown
Weather: no significant weather observed at this time

METAR text: LESO 261530Z 35006KT 300V090 CAVOK 12/06 Q1028
Conditions at: LESO (SAN SEBASTIAN/FU, ES) observed 1530 UTC 26 March 2019
Temperature: 12.0°C (54°F)
Dewpoint: 6.0°C (43°F) [RH = 67%]
Pressure (altimeter): 30.35 inches Hg (1028.0 mb)
Winds: from the N (350 degrees) at 7 MPH (6 knots; 3.1 m/s)
Visibility: 6 or more miles (10+ km)
Ceiling: ceiling and visibility are OK
Clouds: unknown
Weather: no significant weather observed at this time

Forecast for: LESO (SAN SEBASTIAN/FU, ES)
Text: TAF LESO 261100Z 2612/2712 04008KT CAVOK TX15/2615Z TN05/2706Z
Forecast period: 1200 UTC 26 March 2019 to 1200 UTC 27 March 2019
Forecast type: FROM: standard forecast or significant change
Winds: from the NE (40 degrees) at 9 MPH (8 knots; 4.1 m/s)
Visibility: 6 or more miles 10+ km)
Ceiling: unknown
Clouds: missing
Weather: no significant weather forecast for this period

 AIRPORT MAP

 RUNWAY INFORMATION
Runway 04 Runway length 5755 ft Runway width 148 ft
Runway elevation 10 ft Runway displaced threshold 0 ft Runway heading 39
Runway 22 Runway length 5755 ft Runway width 148 ft
Runway elevation 15 ft Runway displaced threshold 0 ft Runway heading 219

 AIRPORT FREQUENCIES
Type TWR Name SAN SEBAST Frequency 119.85 MHZ

 AIRPORT NEAR NAVIGATION AIDS
Type NDB-DME Name San Sebastian Frequency 328 KHZ
Type VOR-DME Name San Sebastian Frequency 117900 KHZ



Powered by Virtual Airlines Manager [v2.6.2]